Nearby METAR Reports

 

KPBH - Phillips, Wisconsin, USA
Distance from station: SE 13mi, 21km
Updated: 01/18/2020 5:55am
Light snow, Overcast
Light snow, Overcast
 Wind from calm
Wind: Calm
Temperature: 23°F , -5°C
Dew Point: 21°F , -6°C
Humidity: 93%
Barometer: 29.70 inHg , 1005.8 hPa
Summary: Light Snow
Clouds: Overcast
Visibility: 3 miles , 5 km
Cloud details: Partly cloudy 1300 ft
Mostly cloudy 3100 ft
Overcast 4200 ft
2020/01/18 11:55 KPBH 181155Z AUTO 00000KT 3SM -SN SCT013 BKN031 OVC042 M05/M06 A2970 RMK AO2 70001 T10551057 11050 21055
KRCX - Ladysmith/Rusk, Wisconsin, USA
Distance from station: SW 29mi, 46km
Updated: 01/18/2020 5:55am
Light snow, Overcast
Light snow, Overcast
 Wind from calm
Wind: Calm
Temperature: 25°F , -4°C
Dew Point: 25°F , -4°C
Humidity: 100%
Barometer: 29.73 inHg , 1006.8 hPa
Summary: Light Snow
Clouds: Overcast
Visibility: 1 1/2 miles , 2.4 km
Cloud details: Overcast 600 ft
2020/01/18 11:55 KRCX 181155Z AUTO 00000KT 1 1/2SM -SN OVC006 M04/M04 A2973 RMK AO2 P0001 60002 70004 T10361036 11030 21038
 
KD25 - Manitowish Water, Wisconsin, USA
Distance from station: ENE 41mi, 66km
Updated: 01/16/2020 11:55pm
NOT Current
Clear
Clear
 Wind from calm
Wind: Calm
Temperature: -20°F , -29°C
Dew Point: -26°F , -32°C
Humidity: 75%
Barometer: 30.69 inHg , 1039.3 hPa
Clouds: Clear
Visibility: 10 miles , 16 km
2020/01/17 05:55 KD25 170555Z AUTO 00000KT 10SM CLR M29/M32 A3069 RMK AO2 T12921322 11220 21299 411381299
KHYR - Hayward, Wisconsin, USA
Distance from station: WNW 42mi, 68km
Updated: 01/18/2020 5:53am
Snow, Freezing, Fog, Overcast
Snow, Freezing, Fog, Overcast
 Wind from calm
Wind: Calm
Temperature: 25°F , -4°C
Dew Point: 21°F , -6°C
Humidity: 86%
Barometer: 29.72 inHg , 1006.4 hPa
Summary: Snow, Freezing, Fog
Clouds: Overcast
Visibility: 1/2 mile , 0.8 km
Cloud details: Overcast 1300 ft
2020/01/18 11:53 KHYR 181153Z AUTO 00000KT 1/2SM SN FZFG VV013 M04/M06 A2972 RMK AO2 SLP086 P0005 60007 70014 I6001 T10391061 11039 21050 56038
 
KARV - Minocqua/Woodruf, Wisconsin, USA
Distance from station: E 44mi, 71km
Updated: 01/18/2020 5:55am
Snow, Overcast
Snow, Overcast
 Wind from ESE
Wind: ESE 6 mph , 9 km/h
Temperature: 25°F , -4°C
Wind Chill: 18°F , -8°C
Dew Point: 23°F , -5°C
Humidity: 93%
Barometer: 29.71 inHg , 1006.1 hPa
Summary: Snow
Clouds: Overcast
Visibility: 1 1/4 miles , 2 km
Cloud details: Mostly cloudy 600 ft
Overcast 1200 ft
2020/01/18 11:55 KARV 181155Z AUTO 12005KT 1 1/4SM SN BKN006 OVC012 M04/M05 A2971 RMK AO2 60002 70005 T10431055 11043 21055
KTKV - Tomahawk Regnl, Wisconsin, USA
Distance from station: ESE 46mi, 74km
Updated: 01/18/2020 5:55am
Light snow, Overcast
Light snow, Overcast
 Wind from calm
Wind: Calm
Temperature: 23°F , -5°C
Dew Point: 21°F , -6°C
Humidity: 93%
Barometer: 29.70 inHg , 1005.8 hPa
Summary: Light Snow
Clouds: Overcast
Visibility: 1 3/4 miles , 2.8 km
Cloud details: Partly cloudy 1000 ft
Mostly cloudy 1400 ft
Overcast 2100 ft
2020/01/18 11:55 KTKV 181155Z AUTO 00000KT 1 3/4SM -SN SCT010 BKN014 OVC021 M05/M06 A2970 RMK AO2 T10511062 11051 21056